Eagle Lake, Minnesota
Current Conditions -  °F | °C
As of 4:55 PM on Thursday 18 Dec 2014 (Local Time) from KMKT Reporting Station
Overcast Overcast  
Wind Chill: 15°   Ceiling: 8000
Heat Index: 21°   Visibility: 8mi
Dew Point: 14°   Wind: 5mph
Humidity: 74%   Direction: 90°E
Pressure: 30.25"   Gusts: NA
Location:  44.16°N, 93.88°W
Report Text: KMKT 182255Z AUTO 09004KT 8SM OVC080 M06/M10 A3025 RMK AO1
Loading
Personal Weather Stations






























Interactive Weather Map New forecast layout! Learn more

10-Day Weather Forecast

Advertisements
Track Severe Weather on mobile